createdAt,value
2019-05-03T00:01:02.376Z,97551.88
2019-05-03T00:04:07.024Z,97559.83
2019-05-03T00:07:11.838Z,97561.95
2019-05-03T00:10:17.760Z,97559.41
2019-05-03T00:13:22.202Z,97564.52
2019-05-03T00:16:33.901Z,97561.09
2019-05-03T00:19:38.439Z,97554.17
2019-05-03T00:22:42.866Z,97556.36
2019-05-03T00:25:47.660Z,97554.45
2019-05-03T00:28:52.186Z,97555.78
2019-05-03T00:31:56.621Z,97561.23
2019-05-03T00:35:08.691Z,97559.34
2019-05-03T00:38:15.082Z,97558.17
2019-05-03T00:41:21.462Z,97559.69
2019-05-03T00:44:25.702Z,97556.02
2019-05-03T00:47:30.156Z,97550.69
2019-05-03T00:50:34.609Z,97549.70
2019-05-03T00:53:39.348Z,97547.73
2019-05-03T00:56:44.519Z,97544.63
2019-05-03T00:59:49.023Z,97543.43
2019-05-03T01:02:53.741Z,97541.98
2019-05-03T01:05:58.196Z,97538.53
2019-05-03T01:09:04.749Z,97546.96
2019-05-03T01:12:09.472Z,97536.75
2019-05-03T01:15:18.291Z,97535.91
2019-05-03T01:18:23.234Z,97538.76
2019-05-03T01:21:27.689Z,97544.41
2019-05-03T01:24:32.393Z,97544.67
2019-05-03T01:27:36.869Z,97551.42
2019-05-03T01:30:42.522Z,97538.12
2019-05-03T01:33:47.067Z,97543.47
2019-05-03T01:36:51.991Z,97545.70
2019-05-03T01:39:56.459Z,97546.50
2019-05-03T01:43:02.213Z,97548.73
2019-05-03T01:46:06.935Z,97552.77
2019-05-03T01:49:16.157Z,97557.66
2019-05-03T01:52:25.203Z,97553.57
2019-05-03T01:55:47.458Z,97555.44
2019-05-03T01:58:52.376Z,97556.38
2019-05-03T02:01:58.853Z,97551.34
2019-05-03T02:05:14.016Z,97554.03
2019-05-03T02:08:18.466Z,97557.75
2019-05-03T02:11:22.905Z,97554.25
2019-05-03T02:14:27.607Z,97559.16
2019-05-03T02:17:32.340Z,97548.73
2019-05-03T02:20:36.788Z,97553.10
2019-05-03T02:23:42.516Z,97555.02
2019-05-03T02:26:47.121Z,97561.39
2019-05-03T02:29:52.388Z,97553.41
2019-05-03T02:32:57.326Z,97555.55
2019-05-03T02:36:03.541Z,97556.16
2019-05-03T02:39:13.594Z,97552.86
2019-05-03T02:42:17.570Z,97557.31
2019-05-03T02:45:25.867Z,97560.11
2019-05-03T02:48:31.459Z,97560.55
2019-05-03T02:51:36.160Z,97557.28
2019-05-03T02:54:41.095Z,97561.66
2019-05-03T02:57:46.536Z,97556.09
2019-05-03T03:01:01.696Z,97565.28
2019-05-03T03:04:06.494Z,97571.66
2019-05-03T03:07:15.035Z,97567.34
2019-05-03T03:10:18.922Z,97569.22
2019-05-03T03:13:25.593Z,97565.62
2019-05-03T03:16:31.923Z,97568.04
2019-05-03T03:19:38.679Z,97565.99
2019-05-03T03:22:45.639Z,97568.84
2019-05-03T03:25:55.906Z,97569.31
2019-05-03T03:29:06.610Z,97568.23
2019-05-03T03:32:29.279Z,97568.70
2019-05-03T03:35:38.228Z,97569.34
2019-05-03T03:38:40.935Z,97571.87
2019-05-03T03:41:48.176Z,97571.93
2019-05-03T03:44:56.310Z,97579.76
2019-05-03T03:48:05.084Z,97576.73
2019-05-03T03:51:11.002Z,97580.87
2019-05-03T03:54:19.178Z,97585.50
2019-05-03T03:57:26.832Z,97587.55
2019-05-03T04:00:31.855Z,97594.73
2019-05-03T04:03:36.411Z,97592.08
2019-05-03T04:06:40.849Z,97596.88
2019-05-03T04:09:45.770Z,97600.73
2019-05-03T04:12:50.837Z,97601.84
2019-05-03T04:15:56.938Z,97599.86
2019-05-03T04:19:11.816Z,97606.06
2019-05-03T04:22:16.633Z,97604.19
2019-05-03T04:25:21.642Z,97602.45
2019-05-03T04:28:26.422Z,97611.25
2019-05-03T04:31:30.871Z,97607.31
2019-05-03T04:34:36.055Z,97605.20
2019-05-03T04:37:40.551Z,97609.03
2019-05-03T04:40:45.464Z,97607.08
2019-05-03T04:43:50.333Z,97613.91
2019-05-03T04:46:58.243Z,97614.27
2019-05-03T04:50:01.237Z,97613.75
2019-05-03T04:53:06.061Z,97619.09
2019-05-03T04:56:10.782Z,97625.51
2019-05-03T04:59:16.235Z,97636.70
2019-05-03T05:02:21.032Z,97636.70
2019-05-03T05:05:26.349Z,97637.52
2019-05-03T05:08:31.453Z,97637.34
2019-05-03T05:11:35.903Z,97639.47
2019-05-03T05:14:40.820Z,97632.97
2019-05-03T05:17:48.123Z,97642.00
2019-05-03T05:21:05.622Z,97646.87
2019-05-03T05:24:10.360Z,97656.53
2019-05-03T05:27:16.729Z,97654.51
2019-05-03T05:30:21.185Z,97655.79
2019-05-03T05:33:25.629Z,97660.39
2019-05-03T05:36:30.090Z,97663.64
2019-05-03T05:39:35.577Z,97676.23
2019-05-03T05:42:40.587Z,97674.26
2019-05-03T05:45:45.062Z,97680.01
2019-05-03T05:48:51.252Z,97686.79
2019-05-03T05:51:55.701Z,97693.95
2019-05-03T05:55:18.259Z,97694.28
2019-05-03T05:58:37.012Z,97706.09
2019-05-03T06:01:43.105Z,97711.50
2019-05-03T06:04:47.808Z,97718.53
2019-05-03T06:07:59.601Z,97723.81
2019-05-03T06:11:05.696Z,97727.50
2019-05-03T06:14:11.776Z,97735.78
2019-05-03T06:17:24.541Z,97735.69
2019-05-03T06:20:46.899Z,97740.72
2019-05-03T06:23:53.255Z,97747.71
2019-05-03T06:27:05.174Z,97746.66
2019-05-03T06:30:12.535Z,97746.83
2019-05-03T06:33:16.995Z,97751.33
2019-05-03T06:36:21.701Z,97754.64
2019-05-03T06:39:26.431Z,97755.13
2019-05-03T06:42:30.885Z,97751.22
2019-05-03T06:45:35.592Z,97757.72
2019-05-03T06:48:40.317Z,97761.13
2019-05-03T06:51:49.453Z,97756.81
2019-05-03T06:54:51.520Z,97767.84
2019-05-03T06:57:56.250Z,97767.54
2019-05-03T07:01:04.543Z,97772.39
2019-05-03T07:04:10.155Z,97771.58
2019-05-03T07:07:31.503Z,97771.36
2019-05-03T07:10:37.604Z,97783.63
2019-05-03T07:13:44.842Z,97778.06
2019-05-03T07:16:48.807Z,97789.72
2019-05-03T07:19:54.692Z,97795.05
2019-05-03T07:22:59.603Z,97796.12
2019-05-03T07:26:05.343Z,97797.17
2019-05-03T07:29:10.391Z,97800.14
2019-05-03T07:32:15.595Z,97802.30
2019-05-03T07:35:20.566Z,97808.98
2019-05-03T07:38:25.508Z,97806.30
2019-05-03T07:41:30.027Z,97809.11
2019-05-03T07:44:34.980Z,97803.88
2019-05-03T07:47:39.695Z,97801.90
2019-05-03T07:50:44.760Z,97808.36
2019-05-03T07:53:49.371Z,97807.55
2019-05-03T07:56:55.736Z,97803.92
2019-05-03T08:00:00.191Z,97804.36
2019-05-03T08:03:05.300Z,97796.58
2019-05-03T08:06:10.023Z,97788.48
2019-05-03T08:09:15.325Z,97794.61
2019-05-03T08:12:20.308Z,97797.73
2019-05-03T08:15:24.756Z,97800.03
2019-05-03T08:18:29.563Z,97794.80
2019-05-03T08:21:38.164Z,97798.30
2019-05-03T08:24:40.199Z,97786.21
2019-05-03T08:27:45.191Z,97791.87
2019-05-03T08:31:08.050Z,97791.73
2019-05-03T08:34:15.285Z,97791.34
2019-05-03T08:37:21.505Z,97786.47
2019-05-03T08:40:27.595Z,97795.83
2019-05-03T08:43:32.038Z,97793.33
2019-05-03T08:46:36.486Z,97789.94
2019-05-03T08:49:41.241Z,97796.67
2019-05-03T08:52:45.685Z,97793.14
2019-05-03T08:55:50.210Z,97791.59
2019-05-03T08:58:55.475Z,97791.69
2019-05-03T09:02:03.481Z,97786.71
2019-05-03T09:05:08.281Z,97783.28
2019-05-03T09:08:13.017Z,97782.97
2019-05-03T09:11:30.745Z,97785.09
2019-05-03T09:14:24.550Z,97773.83
2019-05-03T09:17:30.547Z,97769.32
2019-05-03T09:20:35.679Z,97780.33
2019-05-03T09:23:40.234Z,97785.77
2019-05-03T09:26:45.005Z,97785.28
2019-05-03T09:29:49.800Z,97784.66
2019-05-03T09:32:55.701Z,97781.97
2019-05-03T09:36:00.272Z,97781.76
2019-05-03T09:39:07.568Z,97789.86
2019-05-03T09:42:12.316Z,97787.09
2019-05-03T09:45:17.246Z,97786.48
2019-05-03T09:48:21.715Z,97793.59
2019-05-03T09:51:26.420Z,97792.68
2019-05-03T09:54:34.723Z,97794.50
2019-05-03T09:57:39.272Z,97786.34
2019-05-03T10:00:44.615Z,97786.84
2019-05-03T10:03:49.117Z,97781.09
2019-05-03T10:06:54.835Z,97794.22
2019-05-03T10:09:59.312Z,97784.69
2019-05-03T10:13:13.199Z,97778.21
2019-05-03T10:16:10.780Z,97775.17
2019-05-03T10:19:16.253Z,97764.00
2019-05-03T10:22:28.155Z,97761.16
2019-05-03T10:25:32.584Z,97766.56
2019-05-03T10:28:37.033Z,97756.95
2019-05-03T10:31:55.324Z,97764.38
2019-05-03T10:35:05.674Z,97760.68
2019-05-03T10:38:10.001Z,97761.09
2019-05-03T10:41:17.423Z,97756.85
2019-05-03T10:44:24.403Z,97755.62
2019-05-03T10:47:28.628Z,97760.05
2019-05-03T10:50:34.779Z,97764.19
2019-05-03T10:53:41.189Z,97759.01
2019-05-03T10:56:49.675Z,97764.15
2019-05-03T10:59:55.530Z,97758.78
2019-05-03T11:03:01.783Z,97756.41
2019-05-03T11:06:06.290Z,97750.88
2019-05-03T11:09:11.055Z,97757.86
2019-05-03T11:12:15.872Z,97755.08
2019-05-03T11:15:20.624Z,97745.80
2019-05-03T11:18:25.323Z,97747.27
2019-05-03T11:21:31.145Z,97744.78
2019-05-03T11:24:35.709Z,97745.73
2019-05-03T11:27:42.105Z,97745.06
2019-05-03T11:30:56.454Z,97747.67
2019-05-03T11:33:55.321Z,97744.69
2019-05-03T11:37:08.106Z,97741.83
2019-05-03T11:40:12.605Z,97738.52
2019-05-03T11:43:18.695Z,97738.28
2019-05-03T11:46:24.808Z,97736.84
2019-05-03T11:49:29.422Z,97733.84
2019-05-03T11:52:35.571Z,97735.52
2019-05-03T11:55:40.461Z,97735.87
2019-05-03T11:58:45.698Z,97734.63
2019-05-03T12:01:55.306Z,97733.83
2019-05-03T12:05:02.127Z,97731.46
2019-05-03T12:08:06.833Z,97725.81
2019-05-03T12:11:11.302Z,97726.03
2019-05-03T12:14:16.003Z,97723.13
2019-05-03T12:17:28.288Z,97726.09
2019-05-03T12:20:29.998Z,97719.61
2019-05-03T12:23:36.833Z,97711.86
2019-05-03T12:26:44.650Z,97713.73
2019-05-03T12:29:47.751Z,97713.01
2019-05-03T12:32:54.528Z,97717.75
2019-05-03T12:35:58.944Z,97709.25
2019-05-03T12:39:05.636Z,97701.21
2019-05-03T12:42:11.175Z,97700.91
2019-05-03T12:45:16.007Z,97698.94
2019-05-03T12:48:20.735Z,97694.94
2019-05-03T12:51:25.643Z,97692.05
2019-05-03T12:54:30.607Z,97687.45
2019-05-03T12:57:35.045Z,97690.37
2019-05-03T13:00:41.126Z,97691.72
2019-05-03T13:03:47.570Z,97688.07
2019-05-03T13:06:56.295Z,97683.14
2019-05-03T13:10:01.023Z,97670.82
2019-05-03T13:13:05.753Z,97663.67
2019-05-03T13:16:11.856Z,97661.23
2019-05-03T13:19:16.297Z,97652.53
2019-05-03T13:22:20.741Z,97636.55
2019-05-03T13:25:25.920Z,97634.02
2019-05-03T13:28:30.837Z,97648.94
2019-05-03T13:31:35.288Z,97636.66
2019-05-03T13:34:41.392Z,97639.49
2019-05-03T13:37:46.977Z,97627.84
2019-05-03T13:40:51.710Z,97627.03
2019-05-03T13:43:56.143Z,97629.45
2019-05-03T13:47:00.590Z,97642.84
2019-05-03T13:50:07.572Z,97630.41
2019-05-03T13:53:12.371Z,97636.63
2019-05-03T13:56:16.822Z,97627.96
2019-05-03T13:59:22.149Z,97631.22
2019-05-03T14:02:26.682Z,97625.98
2019-05-03T14:05:31.126Z,97625.45
2019-05-03T14:08:35.640Z,97618.27
2019-05-03T14:11:40.076Z,97611.78
2019-05-03T14:14:56.014Z,97615.58
2019-05-03T14:17:59.823Z,97608.42
2019-05-03T14:21:11.415Z,97601.59
2019-05-03T14:24:16.170Z,97613.33
2019-05-03T14:27:20.751Z,97605.41
2019-05-03T14:30:25.533Z,97606.67
2019-05-03T14:33:29.959Z,97613.73
2019-05-03T14:36:35.848Z,97610.92
2019-05-03T14:39:40.529Z,97619.77
2019-05-03T14:42:44.974Z,97620.94
2019-05-03T14:45:49.427Z,97618.70
2019-05-03T14:48:54.954Z,97625.34
2019-05-03T14:51:59.489Z,97622.87
2019-05-03T14:55:19.029Z,97627.20
2019-05-03T14:58:25.870Z,97622.20
2019-05-03T15:01:32.181Z,97619.16
2019-05-03T15:04:36.636Z,97617.78
2019-05-03T15:07:41.085Z,97613.40
2019-05-03T15:10:45.782Z,97621.41
2019-05-03T15:13:50.360Z,97626.01
2019-05-03T15:16:55.765Z,97618.50
2019-05-03T15:20:00.674Z,97625.79
2019-05-03T15:23:05.685Z,97619.58
2019-05-03T15:26:10.146Z,97616.88
2019-05-03T15:29:15.597Z,97614.08
2019-05-03T15:32:20.519Z,97619.03
2019-05-03T15:35:25.860Z,97613.43
2019-05-03T15:38:30.480Z,97615.05
2019-05-03T15:41:36.298Z,97612.97
2019-05-03T15:44:58.688Z,97615.81
2019-05-03T15:48:07.497Z,97614.63
2019-05-03T15:51:12.270Z,97616.20
2019-05-03T15:54:16.699Z,97621.36
2019-05-03T15:57:21.140Z,97620.17
2019-05-03T16:00:25.935Z,97616.72
2019-05-03T16:03:30.663Z,97617.31
2019-05-03T16:06:35.412Z,97624.33
2019-05-03T16:09:39.844Z,97626.33
2019-05-03T16:12:44.964Z,97628.23
2019-05-03T16:15:49.894Z,97632.25
2019-05-03T16:18:54.338Z,97634.06
2019-05-03T16:21:58.778Z,97631.76
2019-05-03T16:25:04.951Z,97636.11
2019-05-03T16:28:11.084Z,97639.67
2019-05-03T16:31:17.672Z,97630.57
2019-05-03T16:34:22.190Z,97636.52
2019-05-03T16:37:26.898Z,97623.08
2019-05-03T16:40:31.337Z,97627.98
2019-05-03T16:43:35.785Z,97623.83
2019-05-03T16:46:40.227Z,97619.77
2019-05-03T16:49:44.759Z,97621.28
2019-05-03T16:52:49.193Z,97623.01
2019-05-03T16:55:54.805Z,97626.68
2019-05-03T16:58:59.601Z,97626.27
2019-05-03T17:02:05.794Z,97627.12
2019-05-03T17:05:14.272Z,97620.70
2019-05-03T17:08:20.352Z,97625.53
2019-05-03T17:11:26.057Z,97625.59
2019-05-03T17:14:30.505Z,97620.77
2019-05-03T17:17:34.951Z,97615.23
2019-05-03T17:20:39.693Z,97621.80
2019-05-03T17:23:44.648Z,97624.41
2019-05-03T17:26:49.448Z,97622.63
2019-05-03T17:29:55.262Z,97621.39
2019-05-03T17:32:59.888Z,97622.32
2019-05-03T17:36:05.124Z,97616.20
2019-05-03T17:39:11.700Z,97618.97
2019-05-03T17:42:34.569Z,97616.81
2019-05-03T17:45:49.368Z,97623.50
2019-05-03T17:48:54.685Z,97618.69
2019-05-03T17:51:59.088Z,97617.91
2019-05-03T17:55:15.287Z,97620.17
2019-05-03T17:58:37.822Z,97631.86
2019-05-03T18:01:52.555Z,97620.05
2019-05-03T18:05:15.724Z,97633.09
2019-05-03T18:08:25.025Z,97629.19
2019-05-03T18:11:31.200Z,97636.78
2019-05-03T18:14:35.659Z,97643.27
2019-05-03T18:17:40.092Z,97647.39
2019-05-03T18:20:45.062Z,97641.38
2019-05-03T18:23:49.940Z,97648.85
2019-05-03T18:26:54.542Z,97646.81
2019-05-03T18:29:58.993Z,97645.33
2019-05-03T18:33:04.837Z,97645.78
2019-05-03T18:36:09.781Z,97648.73
2019-05-03T18:39:14.839Z,97647.88
2019-05-03T18:42:21.294Z,97657.80
2019-05-03T18:45:28.491Z,97645.17
2019-05-03T18:48:33.314Z,97642.55
2019-05-03T18:51:38.046Z,97645.36
2019-05-03T18:54:44.375Z,97653.82
2019-05-03T18:57:48.652Z,97657.64
2019-05-03T19:00:54.868Z,97657.38
2019-05-03T19:04:01.471Z,97664.20
2019-05-03T19:07:07.557Z,97667.43
2019-05-03T19:10:17.098Z,97658.69
2019-05-03T19:13:23.170Z,97671.04
2019-05-03T19:16:30.226Z,97667.39
2019-05-03T19:19:36.317Z,97669.94
2019-05-03T19:22:41.025Z,97668.63
2019-05-03T19:25:49.189Z,97671.88
2019-05-03T19:28:51.698Z,97671.58
2019-05-03T19:31:56.453Z,97663.45
2019-05-03T19:35:00.891Z,97672.35
2019-05-03T19:38:05.708Z,97675.39
2019-05-03T19:41:10.178Z,97672.38
2019-05-03T19:44:15.641Z,97676.83
2019-05-03T19:47:20.160Z,97681.72
2019-05-03T19:50:27.132Z,97686.62
2019-05-03T19:53:33.718Z,97686.50
2019-05-03T19:56:38.166Z,97689.57
2019-05-03T19:59:44.555Z,97685.00
2019-05-03T20:02:49.077Z,97685.33
2019-05-03T20:05:55.166Z,97686.94
2019-05-03T20:09:14.700Z,97685.95
2019-05-03T20:12:19.647Z,97682.55
2019-05-03T20:15:24.410Z,97680.05
2019-05-03T20:18:29.116Z,97677.98
2019-05-03T20:21:33.947Z,97677.59
2019-05-03T20:24:38.677Z,97678.43
2019-05-03T20:27:44.518Z,97675.45
2019-05-03T20:30:49.128Z,97668.25
2019-05-03T20:33:54.902Z,97675.05
2019-05-03T20:36:59.750Z,97664.31
2019-05-03T20:40:09.098Z,97671.84
2019-05-03T20:43:27.336Z,97670.41
2019-05-03T20:46:35.878Z,97672.88
2019-05-03T20:49:40.589Z,97669.44
2019-05-03T20:52:45.778Z,97669.66
2019-05-03T20:55:50.287Z,97669.12
2019-05-03T20:58:55.147Z,97665.36
2019-05-03T21:01:59.917Z,97662.86
2019-05-03T21:05:07.665Z,97663.64
2019-05-03T21:08:12.118Z,97662.35
2019-05-03T21:11:16.562Z,97657.04
2019-05-03T21:14:20.998Z,97657.78
2019-05-03T21:17:36.050Z,97663.25
2019-05-03T21:20:45.130Z,97658.20
2019-05-03T21:23:57.105Z,97655.97
2019-05-03T21:27:01.825Z,97653.04
2019-05-03T21:30:09.638Z,97654.63
2019-05-03T21:33:15.779Z,97651.43
2019-05-03T21:36:20.630Z,97650.89
2019-05-03T21:39:25.068Z,97644.20
2019-05-03T21:42:29.515Z,97649.20
2019-05-03T21:45:35.591Z,97646.03
2019-05-03T21:48:57.988Z,97647.59
2019-05-03T21:52:04.482Z,97643.86
2019-05-03T21:55:09.390Z,97644.60
2019-05-03T21:58:16.125Z,97637.53
2019-05-03T22:01:20.697Z,97635.59
2019-05-03T22:04:25.146Z,97641.38
2019-05-03T22:07:29.590Z,97634.89
2019-05-03T22:10:34.621Z,97636.30
2019-05-03T22:13:40.220Z,97632.09
2019-05-03T22:16:49.309Z,97635.00
2019-05-03T22:19:55.663Z,97633.23
2019-05-03T22:23:01.999Z,97633.14
2019-05-03T22:26:07.857Z,97632.91
2019-05-03T22:29:14.423Z,97626.45
2019-05-03T22:32:18.910Z,97623.63
2019-05-03T22:35:25.095Z,97623.80
2019-05-03T22:38:29.957Z,97616.61
2019-05-03T22:41:35.623Z,97612.11
2019-05-03T22:44:40.068Z,97611.61
2019-05-03T22:47:44.789Z,97611.55
2019-05-03T22:50:50.722Z,97611.15
2019-05-03T22:53:55.556Z,97603.73
2019-05-03T22:57:00.004Z,97597.38
2019-05-03T23:00:09.604Z,97595.03
2019-05-03T23:03:16.004Z,97589.66
2019-05-03T23:06:22.774Z,97585.90
2019-05-03T23:09:28.529Z,97579.89
2019-05-03T23:12:34.863Z,97574.72
2019-05-03T23:15:39.426Z,97575.76
2019-05-03T23:18:44.396Z,97569.65
2019-05-03T23:21:59.939Z,97565.26
2019-05-03T23:25:06.029Z,97570.73
2019-05-03T23:28:10.474Z,97568.47
2019-05-03T23:31:15.986Z,97560.84
2019-05-03T23:34:20.711Z,97558.63
2019-05-03T23:37:25.140Z,97556.63
2019-05-03T23:40:29.870Z,97548.44
2019-05-03T23:43:35.832Z,97547.75
2019-05-03T23:46:42.405Z,97540.43
2019-05-03T23:49:46.849Z,97534.68
2019-05-03T23:52:51.283Z,97527.64
2019-05-03T23:56:04.494Z,97521.50
2019-05-03T23:59:09.073Z,97516.48
